sensor_id;sensor_type;location;lat;lon;timestamp;pressure;altitude;pressure_sealevel;temperature
51547;BMP180;37542;50.164;9.086;2022-10-31T00:02:00;101154.00;;;16.50
51547;BMP180;37542;50.164;9.086;2022-10-31T00:05:44;101166.00;;;16.40
51547;BMP180;37542;50.164;9.086;2022-10-31T00:09:25;101160.00;;;16.40
51547;BMP180;37542;50.164;9.086;2022-10-31T00:13:08;101163.00;;;16.40
51547;BMP180;37542;50.164;9.086;2022-10-31T00:16:49;101164.00;;;16.40
51547;BMP180;37542;50.164;9.086;2022-10-31T00:20:30;101163.00;;;16.30
51547;BMP180;37542;50.164;9.086;2022-10-31T00:24:11;101156.00;;;16.30
51547;BMP180;37542;50.164;9.086;2022-10-31T00:27:52;101163.00;;;16.30
51547;BMP180;37542;50.164;9.086;2022-10-31T00:31:33;101162.00;;;16.30
51547;BMP180;37542;50.164;9.086;2022-10-31T00:35:14;101168.00;;;16.30
51547;BMP180;37542;50.164;9.086;2022-10-31T00:38:55;101181.00;;;16.30
51547;BMP180;37542;50.164;9.086;2022-10-31T00:42:36;101162.00;;;16.20
51547;BMP180;37542;50.164;9.086;2022-10-31T00:46:16;101183.00;;;16.20
51547;BMP180;37542;50.164;9.086;2022-10-31T00:49:57;101182.00;;;16.20
51547;BMP180;37542;50.164;9.086;2022-10-31T00:53:38;101176.00;;;16.10
51547;BMP180;37542;50.164;9.086;2022-10-31T00:57:18;101182.00;;;16.10
51547;BMP180;37542;50.164;9.086;2022-10-31T01:00:59;101179.00;;;16.10
51547;BMP180;37542;50.164;9.086;2022-10-31T01:04:40;101188.00;;;16.10
51547;BMP180;37542;50.164;9.086;2022-10-31T01:08:21;101163.00;;;16.00
51547;BMP180;37542;50.164;9.086;2022-10-31T01:12:01;101167.00;;;16.00
51547;BMP180;37542;50.164;9.086;2022-10-31T01:15:42;101179.00;;;15.90
51547;BMP180;37542;50.164;9.086;2022-10-31T01:19:23;101191.00;;;15.90
51547;BMP180;37542;50.164;9.086;2022-10-31T01:23:04;101190.00;;;15.90
51547;BMP180;37542;50.164;9.086;2022-10-31T01:26:44;101188.00;;;15.90
51547;BMP180;37542;50.164;9.086;2022-10-31T01:30:25;101189.00;;;15.90
51547;BMP180;37542;50.164;9.086;2022-10-31T01:34:06;101187.00;;;15.90
51547;BMP180;37542;50.164;9.086;2022-10-31T01:37:47;101175.00;;;15.80
51547;BMP180;37542;50.164;9.086;2022-10-31T01:41:31;101192.00;;;15.80
51547;BMP180;37542;50.164;9.086;2022-10-31T01:45:13;101197.00;;;15.80
51547;BMP180;37542;50.164;9.086;2022-10-31T01:48:57;101189.00;;;15.70
51547;BMP180;37542;50.164;9.086;2022-10-31T01:52:45;101189.00;;;15.70
51547;BMP180;37542;50.164;9.086;2022-10-31T01:56:28;101173.00;;;15.70
51547;BMP180;37542;50.164;9.086;2022-10-31T02:00:10;101171.00;;;15.70
51547;BMP180;37542;50.164;9.086;2022-10-31T02:03:51;101176.00;;;15.70
51547;BMP180;37542;50.164;9.086;2022-10-31T02:07:48;101166.00;;;15.70
51547;BMP180;37542;50.164;9.086;2022-10-31T02:11:34;101174.00;;;15.70
51547;BMP180;37542;50.164;9.086;2022-10-31T02:15:16;101190.00;;;15.60
51547;BMP180;37542;50.164;9.086;2022-10-31T02:18:57;101170.00;;;15.60
51547;BMP180;37542;50.164;9.086;2022-10-31T02:35:41;101161.00;;;15.50
51547;BMP180;37542;50.164;9.086;2022-10-31T02:47:29;101151.00;;;15.50
51547;BMP180;37542;50.164;9.086;2022-10-31T02:51:15;101158.00;;;15.50
51547;BMP180;37542;50.164;9.086;2022-10-31T02:54:57;101168.00;;;15.50
51547;BMP180;37542;50.164;9.086;2022-10-31T02:59:01;101148.00;;;15.50
51547;BMP180;37542;50.164;9.086;2022-10-31T03:03:17;101149.00;;;15.40
51547;BMP180;37542;50.164;9.086;2022-10-31T03:11:02;101164.00;;;15.40
51547;BMP180;37542;50.164;9.086;2022-10-31T03:14:53;101153.00;;;15.40
51547;BMP180;37542;50.164;9.086;2022-10-31T03:18:56;101164.00;;;15.40
51547;BMP180;37542;50.164;9.086;2022-10-31T03:22:40;101150.00;;;15.40
51547;BMP180;37542;50.164;9.086;2022-10-31T03:26:24;101162.00;;;15.40
51547;BMP180;37542;50.164;9.086;2022-10-31T03:30:07;101164.00;;;15.40
51547;BMP180;37542;50.164;9.086;2022-10-31T03:33:50;101160.00;;;15.40
51547;BMP180;37542;50.164;9.086;2022-10-31T03:37:34;101172.00;;;15.40
51547;BMP180;37542;50.164;9.086;2022-10-31T03:41:21;101166.00;;;15.40
51547;BMP180;37542;50.164;9.086;2022-10-31T03:45:19;101162.00;;;15.40
51547;BMP180;37542;50.164;9.086;2022-10-31T03:49:02;101162.00;;;15.40
51547;BMP180;37542;50.164;9.086;2022-10-31T03:53:05;101165.00;;;15.40
51547;BMP180;37542;50.164;9.086;2022-10-31T03:57:14;101161.00;;;15.40
51547;BMP180;37542;50.164;9.086;2022-10-31T04:01:00;101168.00;;;15.40
51547;BMP180;37542;50.164;9.086;2022-10-31T04:04:44;101169.00;;;15.40
51547;BMP180;37542;50.164;9.086;2022-10-31T04:08:30;101158.00;;;15.40
51547;BMP180;37542;50.164;9.086;2022-10-31T04:12:15;101160.00;;;15.40
51547;BMP180;37542;50.164;9.086;2022-10-31T04:15:57;101163.00;;;15.40
51547;BMP180;37542;50.164;9.086;2022-10-31T04:19:38;101136.00;;;15.30
51547;BMP180;37542;50.164;9.086;2022-10-31T04:23:24;101164.00;;;15.30
51547;BMP180;37542;50.164;9.086;2022-10-31T04:27:06;101157.00;;;15.30
51547;BMP180;37542;50.164;9.086;2022-10-31T04:30:47;101157.00;;;15.30
51547;BMP180;37542;50.164;9.086;2022-10-31T04:34:28;101139.00;;;15.30
51547;BMP180;37542;50.164;9.086;2022-10-31T04:38:08;101140.00;;;15.30
51547;BMP180;37542;50.164;9.086;2022-10-31T04:41:49;101143.00;;;15.30
51547;BMP180;37542;50.164;9.086;2022-10-31T04:45:30;101135.00;;;15.20
51547;BMP180;37542;50.164;9.086;2022-10-31T04:49:11;101147.00;;;15.20
51547;BMP180;37542;50.164;9.086;2022-10-31T04:52:51;101140.00;;;15.20
51547;BMP180;37542;50.164;9.086;2022-10-31T04:56:32;101136.00;;;15.20
51547;BMP180;37542;50.164;9.086;2022-10-31T05:00:17;101143.00;;;15.20
51547;BMP180;37542;50.164;9.086;2022-10-31T05:03:58;101139.00;;;15.20
51547;BMP180;37542;50.164;9.086;2022-10-31T05:07:41;101149.00;;;15.20
51547;BMP180;37542;50.164;9.086;2022-10-31T05:11:22;101143.00;;;15.20
51547;BMP180;37542;50.164;9.086;2022-10-31T05:15:04;101134.00;;;15.20
51547;BMP180;37542;50.164;9.086;2022-10-31T05:18:45;101131.00;;;15.20
51547;BMP180;37542;50.164;9.086;2022-10-31T05:22:26;101122.00;;;15.10
51547;BMP180;37542;50.164;9.086;2022-10-31T05:26:06;101145.00;;;15.10
51547;BMP180;37542;50.164;9.086;2022-10-31T05:29:47;101134.00;;;15.10
51547;BMP180;37542;50.164;9.086;2022-10-31T05:33:28;101157.00;;;15.10
51547;BMP180;37542;50.164;9.086;2022-10-31T05:37:09;101164.00;;;15.10
51547;BMP180;37542;50.164;9.086;2022-10-31T05:40:55;101133.00;;;15.00
51547;BMP180;37542;50.164;9.086;2022-10-31T05:44:38;101134.00;;;15.00
51547;BMP180;37542;50.164;9.086;2022-10-31T05:48:19;101144.00;;;15.10
51547;BMP180;37542;50.164;9.086;2022-10-31T05:52:00;101151.00;;;15.00
51547;BMP180;37542;50.164;9.086;2022-10-31T05:55:42;101143.00;;;15.10
51547;BMP180;37542;50.164;9.086;2022-10-31T05:59:23;101144.00;;;15.10
51547;BMP180;37542;50.164;9.086;2022-10-31T06:03:07;101135.00;;;15.10
51547;BMP180;37542;50.164;9.086;2022-10-31T06:06:48;101143.00;;;15.10
51547;BMP180;37542;50.164;9.086;2022-10-31T06:10:29;101141.00;;;15.10
51547;BMP180;37542;50.164;9.086;2022-10-31T06:14:10;101136.00;;;15.10
51547;BMP180;37542;50.164;9.086;2022-10-31T06:18:02;101144.00;;;15.10
51547;BMP180;37542;50.164;9.086;2022-10-31T06:21:43;101142.00;;;15.00
51547;BMP180;37542;50.164;9.086;2022-10-31T06:25:24;101135.00;;;15.00
51547;BMP180;37542;50.164;9.086;2022-10-31T06:29:05;101139.00;;;15.00
51547;BMP180;37542;50.164;9.086;2022-10-31T06:32:46;101149.00;;;15.00
51547;BMP180;37542;50.164;9.086;2022-10-31T06:36:26;101162.00;;;15.00
51547;BMP180;37542;50.164;9.086;2022-10-31T06:40:08;101162.00;;;15.00
51547;BMP180;37542;50.164;9.086;2022-10-31T06:43:49;101152.00;;;15.00
51547;BMP180;37542;50.164;9.086;2022-10-31T06:47:29;101141.00;;;15.00
51547;BMP180;37542;50.164;9.086;2022-10-31T06:51:10;101148.00;;;15.00
51547;BMP180;37542;50.164;9.086;2022-10-31T06:54:51;101148.00;;;15.00
51547;BMP180;37542;50.164;9.086;2022-10-31T06:58:32;101154.00;;;15.00
51547;BMP180;37542;50.164;9.086;2022-10-31T07:02:12;101152.00;;;15.10
51547;BMP180;37542;50.164;9.086;2022-10-31T07:05:56;101164.00;;;15.10
51547;BMP180;37542;50.164;9.086;2022-10-31T07:09:37;101157.00;;;15.10
51547;BMP180;37542;50.164;9.086;2022-10-31T07:13:17;101151.00;;;15.20
51547;BMP180;37542;50.164;9.086;2022-10-31T07:16:58;101163.00;;;15.30
51547;BMP180;37542;50.164;9.086;2022-10-31T07:20:39;101162.00;;;15.30
51547;BMP180;37542;50.164;9.086;2022-10-31T07:24:20;101170.00;;;15.40
51547;BMP180;37542;50.164;9.086;2022-10-31T07:28:00;101155.00;;;15.40
51547;BMP180;37542;50.164;9.086;2022-10-31T07:31:41;101146.00;;;15.50
51547;BMP180;37542;50.164;9.086;2022-10-31T07:35:27;101164.00;;;15.60
51547;BMP180;37542;50.164;9.086;2022-10-31T07:39:08;101163.00;;;15.70
51547;BMP180;37542;50.164;9.086;2022-10-31T07:42:52;101167.00;;;15.80
51547;BMP180;37542;50.164;9.086;2022-10-31T07:46:33;101148.00;;;15.90
51547;BMP180;37542;50.164;9.086;2022-10-31T07:50:26;101164.00;;;16.10
51547;BMP180;37542;50.164;9.086;2022-10-31T07:54:07;101145.00;;;16.20
51547;BMP180;37542;50.164;9.086;2022-10-31T07:57:59;101148.00;;;16.20
51547;BMP180;37542;50.164;9.086;2022-10-31T08:01:40;101149.00;;;16.40
51547;BMP180;37542;50.164;9.086;2022-10-31T08:05:21;101154.00;;;16.50
51547;BMP180;37542;50.164;9.086;2022-10-31T08:09:02;101146.00;;;16.60
51547;BMP180;37542;50.164;9.086;2022-10-31T08:12:43;101157.00;;;16.70
51547;BMP180;37542;50.164;9.086;2022-10-31T08:16:24;101142.00;;;16.80
51547;BMP180;37542;50.164;9.086;2022-10-31T08:20:06;101155.00;;;16.90
51547;BMP180;37542;50.164;9.086;2022-10-31T08:23:47;101151.00;;;17.00
51547;BMP180;37542;50.164;9.086;2022-10-31T08:27:27;101138.00;;;17.10
51547;BMP180;37542;50.164;9.086;2022-10-31T08:31:08;101156.00;;;17.20
51547;BMP180;37542;50.164;9.086;2022-10-31T08:34:50;101144.00;;;17.20
51547;BMP180;37542;50.164;9.086;2022-10-31T08:38:31;101137.00;;;17.30
51547;BMP180;37542;50.164;9.086;2022-10-31T08:42:12;101130.00;;;17.40
51547;BMP180;37542;50.164;9.086;2022-10-31T08:45:53;101139.00;;;17.50
51547;BMP180;37542;50.164;9.086;2022-10-31T08:49:35;101125.00;;;17.50
51547;BMP180;37542;50.164;9.086;2022-10-31T08:53:18;101138.00;;;17.60
51547;BMP180;37542;50.164;9.086;2022-10-31T08:56:59;101116.00;;;17.70
51547;BMP180;37542;50.164;9.086;2022-10-31T09:00:40;101116.00;;;17.90
51547;BMP180;37542;50.164;9.086;2022-10-31T09:04:22;101115.00;;;18.00
51547;BMP180;37542;50.164;9.086;2022-10-31T09:08:05;101125.00;;;18.10
51547;BMP180;37542;50.164;9.086;2022-10-31T09:11:46;101108.00;;;18.20
51547;BMP180;37542;50.164;9.086;2022-10-31T09:15:28;101111.00;;;18.30
51547;BMP180;37542;50.164;9.086;2022-10-31T09:19:09;101109.00;;;18.40
51547;BMP180;37542;50.164;9.086;2022-10-31T09:22:57;101108.00;;;18.50
51547;BMP180;37542;50.164;9.086;2022-10-31T09:26:38;101091.00;;;18.60
51547;BMP180;37542;50.164;9.086;2022-10-31T09:30:19;101084.00;;;18.80
51547;BMP180;37542;50.164;9.086;2022-10-31T09:34:00;101085.00;;;18.90
51547;BMP180;37542;50.164;9.086;2022-10-31T09:37:41;101091.00;;;19.10
51547;BMP180;37542;50.164;9.086;2022-10-31T09:50:15;101088.00;;;19.40
51547;BMP180;37542;50.164;9.086;2022-10-31T09:54:19;101063.00;;;19.50
51547;BMP180;37542;50.164;9.086;2022-10-31T09:58:01;101065.00;;;19.60
51547;BMP180;37542;50.164;9.086;2022-10-31T10:01:50;101069.00;;;19.80
51547;BMP180;37542;50.164;9.086;2022-10-31T10:06:09;101068.00;;;19.90
51547;BMP180;37542;50.164;9.086;2022-10-31T10:09:52;101044.00;;;20.00
51547;BMP180;37542;50.164;9.086;2022-10-31T10:13:51;101055.00;;;20.10
51547;BMP180;37542;50.164;9.086;2022-10-31T10:22:38;101057.00;;;20.20
51547;BMP180;37542;50.164;9.086;2022-10-31T10:26:43;101042.00;;;20.30
51547;BMP180;37542;50.164;9.086;2022-10-31T10:31:11;101053.00;;;20.40
51547;BMP180;37542;50.164;9.086;2022-10-31T10:35:21;101054.00;;;20.50
51547;BMP180;37542;50.164;9.086;2022-10-31T10:39:23;101040.00;;;20.60
51547;BMP180;37542;50.164;9.086;2022-10-31T10:43:29;101036.00;;;20.70
51547;BMP180;37542;50.164;9.086;2022-10-31T10:47:12;101028.00;;;20.80
51547;BMP180;37542;50.164;9.086;2022-10-31T10:55:45;101024.00;;;21.10
51547;BMP180;37542;50.164;9.086;2022-10-31T10:59:29;101018.00;;;21.20
51547;BMP180;37542;50.164;9.086;2022-10-31T11:03:11;101018.00;;;21.30
51547;BMP180;37542;50.164;9.086;2022-10-31T11:07:10;101004.00;;;21.40
51547;BMP180;37542;50.164;9.086;2022-10-31T11:11:26;100995.00;;;21.50
51547;BMP180;37542;50.164;9.086;2022-10-31T11:15:21;100989.00;;;21.70
51547;BMP180;37542;50.164;9.086;2022-10-31T11:23:18;100976.00;;;21.90
51547;BMP180;37542;50.164;9.086;2022-10-31T11:27:15;100975.00;;;22.00
51547;BMP180;37542;50.164;9.086;2022-10-31T11:30:59;100976.00;;;22.20
51547;BMP180;37542;50.164;9.086;2022-10-31T11:34:47;100952.00;;;22.30
51547;BMP180;37542;50.164;9.086;2022-10-31T11:38:41;100964.00;;;22.40
51547;BMP180;37542;50.164;9.086;2022-10-31T11:42:30;100965.00;;;22.50
51547;BMP180;37542;50.164;9.086;2022-10-31T11:46:37;100954.00;;;22.60
51547;BMP180;37542;50.164;9.086;2022-10-31T11:50:27;100956.00;;;22.80
51547;BMP180;37542;50.164;9.086;2022-10-31T11:54:28;100936.00;;;22.90
51547;BMP180;37542;50.164;9.086;2022-10-31T11:58:27;100928.00;;;23.00
51547;BMP180;37542;50.164;9.086;2022-10-31T12:02:18;100938.00;;;23.20
51547;BMP180;37542;50.164;9.086;2022-10-31T12:06:23;100925.00;;;23.30
51547;BMP180;37542;50.164;9.086;2022-10-31T12:10:11;100909.00;;;23.40
51547;BMP180;37542;50.164;9.086;2022-10-31T12:18:32;100905.00;;;23.40
51547;BMP180;37542;50.164;9.086;2022-10-31T12:44:00;100883.00;;;24.00
51547;BMP180;37542;50.164;9.086;2022-10-31T13:00:31;100848.00;;;24.40
51547;BMP180;37542;50.164;9.086;2022-10-31T13:04:35;100843.00;;;24.50
51547;BMP180;37542;50.164;9.086;2022-10-31T13:12:15;100837.00;;;24.70
51547;BMP180;37542;50.164;9.086;2022-10-31T13:16:15;100814.00;;;24.70
51547;BMP180;37542;50.164;9.086;2022-10-31T13:24:00;100824.00;;;24.90
51547;BMP180;37542;50.164;9.086;2022-10-31T13:27:46;100814.00;;;24.90
51547;BMP180;37542;50.164;9.086;2022-10-31T13:31:29;100805.00;;;25.00
51547;BMP180;37542;50.164;9.086;2022-10-31T13:40:22;100795.00;;;24.90
51547;BMP180;37542;50.164;9.086;2022-10-31T13:44:23;100797.00;;;24.90
51547;BMP180;37542;50.164;9.086;2022-10-31T13:56:28;100788.00;;;25.00
51547;BMP180;37542;50.164;9.086;2022-10-31T14:04:05;100772.00;;;25.10
51547;BMP180;37542;50.164;9.086;2022-10-31T14:07:48;100771.00;;;25.10
51547;BMP180;37542;50.164;9.086;2022-10-31T14:11:30;100759.00;;;25.10
51547;BMP180;37542;50.164;9.086;2022-10-31T14:15:26;100744.00;;;25.10
51547;BMP180;37542;50.164;9.086;2022-10-31T14:19:15;100748.00;;;25.20
51547;BMP180;37542;50.164;9.086;2022-10-31T14:22:57;100740.00;;;25.20
51547;BMP180;37542;50.164;9.086;2022-10-31T14:26:37;100728.00;;;25.20
51547;BMP180;37542;50.164;9.086;2022-10-31T14:30:23;100740.00;;;25.20
51547;BMP180;37542;50.164;9.086;2022-10-31T14:34:30;100738.00;;;25.10
51547;BMP180;37542;50.164;9.086;2022-10-31T14:38:31;100719.00;;;25.10
51547;BMP180;37542;50.164;9.086;2022-10-31T14:50:51;100719.00;;;25.00
51547;BMP180;37542;50.164;9.086;2022-10-31T14:54:39;100713.00;;;25.00
51547;BMP180;37542;50.164;9.086;2022-10-31T14:58:30;100710.00;;;25.00
51547;BMP180;37542;50.164;9.086;2022-10-31T15:02:26;100709.00;;;25.00
51547;BMP180;37542;50.164;9.086;2022-10-31T15:06:15;100696.00;;;24.90
51547;BMP180;37542;50.164;9.086;2022-10-31T15:10:04;100693.00;;;24.90
51547;BMP180;37542;50.164;9.086;2022-10-31T15:13:51;100680.00;;;24.80
51547;BMP180;37542;50.164;9.086;2022-10-31T15:17:32;100681.00;;;24.70
51547;BMP180;37542;50.164;9.086;2022-10-31T15:21:16;100690.00;;;24.70
51547;BMP180;37542;50.164;9.086;2022-10-31T15:24:57;100699.00;;;24.70
51547;BMP180;37542;50.164;9.086;2022-10-31T15:28:38;100695.00;;;24.70
51547;BMP180;37542;50.164;9.086;2022-10-31T15:32:26;100715.00;;;24.70
51547;BMP180;37542;50.164;9.086;2022-10-31T15:36:22;100718.00;;;24.70
51547;BMP180;37542;50.164;9.086;2022-10-31T15:40:17;100723.00;;;24.60
51547;BMP180;37542;50.164;9.086;2022-10-31T15:44:24;100717.00;;;24.50
51547;BMP180;37542;50.164;9.086;2022-10-31T15:48:17;100731.00;;;24.30
51547;BMP180;37542;50.164;9.086;2022-10-31T15:56:24;100737.00;;;24.20
51547;BMP180;37542;50.164;9.086;2022-10-31T16:00:06;100723.00;;;24.10
51547;BMP180;37542;50.164;9.086;2022-10-31T16:07:53;100715.00;;;23.90
51547;BMP180;37542;50.164;9.086;2022-10-31T16:11:38;100730.00;;;23.80
51547;BMP180;37542;50.164;9.086;2022-10-31T16:15:21;100721.00;;;23.70
51547;BMP180;37542;50.164;9.086;2022-10-31T16:19:05;100718.00;;;23.50
51547;BMP180;37542;50.164;9.086;2022-10-31T16:22:50;100669.00;;;23.40
51547;BMP180;37542;50.164;9.086;2022-10-31T16:26:32;100727.00;;;23.30
51547;BMP180;37542;50.164;9.086;2022-10-31T16:30:45;100732.00;;;23.10
51547;BMP180;37542;50.164;9.086;2022-10-31T16:34:26;100708.00;;;23.00
51547;BMP180;37542;50.164;9.086;2022-10-31T16:38:08;100704.00;;;22.90
51547;BMP180;37542;50.164;9.086;2022-10-31T16:41:55;100695.00;;;22.80
51547;BMP180;37542;50.164;9.086;2022-10-31T16:45:36;100692.00;;;22.70
51547;BMP180;37542;50.164;9.086;2022-10-31T16:49:17;100701.00;;;22.60
51547;BMP180;37542;50.164;9.086;2022-10-31T16:52:59;100697.00;;;22.60
51547;BMP180;37542;50.164;9.086;2022-10-31T16:56:41;100680.00;;;22.50
51547;BMP180;37542;50.164;9.086;2022-10-31T17:00:24;100647.00;;;22.40
51547;BMP180;37542;50.164;9.086;2022-10-31T17:04:08;100643.00;;;22.30
51547;BMP180;37542;50.164;9.086;2022-10-31T17:07:49;100629.00;;;22.20
51547;BMP180;37542;50.164;9.086;2022-10-31T17:11:31;100610.00;;;22.20
51547;BMP180;37542;50.164;9.086;2022-10-31T17:15:24;100611.00;;;22.10
51547;BMP180;37542;50.164;9.086;2022-10-31T17:19:05;100579.00;;;22.00
51547;BMP180;37542;50.164;9.086;2022-10-31T17:22:46;100592.00;;;22.00
51547;BMP180;37542;50.164;9.086;2022-10-31T17:26:27;100578.00;;;22.00
51547;BMP180;37542;50.164;9.086;2022-10-31T17:30:10;100570.00;;;22.00
51547;BMP180;37542;50.164;9.086;2022-10-31T17:33:54;100569.00;;;21.90
51547;BMP180;37542;50.164;9.086;2022-10-31T17:37:36;100563.00;;;21.90
51547;BMP180;37542;50.164;9.086;2022-10-31T17:41:17;100560.00;;;21.80
51547;BMP180;37542;50.164;9.086;2022-10-31T17:44:58;100550.00;;;21.70
51547;BMP180;37542;50.164;9.086;2022-10-31T17:48:39;100572.00;;;21.60
51547;BMP180;37542;50.164;9.086;2022-10-31T17:52:19;100562.00;;;21.60
51547;BMP180;37542;50.164;9.086;2022-10-31T17:56:07;100573.00;;;21.50
51547;BMP180;37542;50.164;9.086;2022-10-31T17:59:48;100593.00;;;21.50
51547;BMP180;37542;50.164;9.086;2022-10-31T18:03:32;100642.00;;;21.40
51547;BMP180;37542;50.164;9.086;2022-10-31T18:07:15;100620.00;;;21.10
51547;BMP180;37542;50.164;9.086;2022-10-31T18:11:01;100613.00;;;21.20
51547;BMP180;37542;50.164;9.086;2022-10-31T18:14:44;100641.00;;;21.20
51547;BMP180;37542;50.164;9.086;2022-10-31T18:18:25;100645.00;;;21.10
51547;BMP180;37542;50.164;9.086;2022-10-31T18:22:06;100598.00;;;21.10
51547;BMP180;37542;50.164;9.086;2022-10-31T18:25:47;100593.00;;;21.00
51547;BMP180;37542;50.164;9.086;2022-10-31T18:29:30;100590.00;;;21.10
51547;BMP180;37542;50.164;9.086;2022-10-31T18:33:11;100590.00;;;21.00
51547;BMP180;37542;50.164;9.086;2022-10-31T18:36:52;100620.00;;;21.10
51547;BMP180;37542;50.164;9.086;2022-10-31T18:40:34;100601.00;;;21.00
51547;BMP180;37542;50.164;9.086;2022-10-31T18:44:18;100602.00;;;21.00
51547;BMP180;37542;50.164;9.086;2022-10-31T18:47:59;100596.00;;;20.90
51547;BMP180;37542;50.164;9.086;2022-10-31T18:51:40;100600.00;;;20.90
51547;BMP180;37542;50.164;9.086;2022-10-31T18:55:21;100571.00;;;20.80
51547;BMP180;37542;50.164;9.086;2022-10-31T18:59:02;100565.00;;;20.70
51547;BMP180;37542;50.164;9.086;2022-10-31T19:02:42;100553.00;;;20.70
51547;BMP180;37542;50.164;9.086;2022-10-31T19:06:25;100534.00;;;20.60
51547;BMP180;37542;50.164;9.086;2022-10-31T19:10:26;100538.00;;;20.50
51547;BMP180;37542;50.164;9.086;2022-10-31T19:14:08;100520.00;;;20.40
51547;BMP180;37542;50.164;9.086;2022-10-31T19:17:50;100519.00;;;20.40
51547;BMP180;37542;50.164;9.086;2022-10-31T19:21:31;100529.00;;;20.20
51547;BMP180;37542;50.164;9.086;2022-10-31T19:25:12;100552.00;;;20.20
51547;BMP180;37542;50.164;9.086;2022-10-31T19:28:55;100519.00;;;20.00
51547;BMP180;37542;50.164;9.086;2022-10-31T19:32:40;100555.00;;;20.00
51547;BMP180;37542;50.164;9.086;2022-10-31T19:36:21;100550.00;;;19.90
51547;BMP180;37542;50.164;9.086;2022-10-31T19:40:06;100540.00;;;19.90
51547;BMP180;37542;50.164;9.086;2022-10-31T19:43:48;100560.00;;;19.80
51547;BMP180;37542;50.164;9.086;2022-10-31T19:47:29;100599.00;;;19.60
51547;BMP180;37542;50.164;9.086;2022-10-31T19:51:19;100611.00;;;19.40
51547;BMP180;37542;50.164;9.086;2022-10-31T19:55:01;100623.00;;;19.40
51547;BMP180;37542;50.164;9.086;2022-10-31T19:58:42;100607.00;;;19.50
51547;BMP180;37542;50.164;9.086;2022-10-31T20:02:23;100586.00;;;19.30
51547;BMP180;37542;50.164;9.086;2022-10-31T20:06:05;100648.00;;;19.10
51547;BMP180;37542;50.164;9.086;2022-10-31T20:09:46;100617.00;;;19.40
51547;BMP180;37542;50.164;9.086;2022-10-31T20:13:29;100621.00;;;19.50
51547;BMP180;37542;50.164;9.086;2022-10-31T20:17:10;100617.00;;;19.50
51547;BMP180;37542;50.164;9.086;2022-10-31T20:20:52;100623.00;;;19.50
51547;BMP180;37542;50.164;9.086;2022-10-31T20:24:32;100626.00;;;19.50
51547;BMP180;37542;50.164;9.086;2022-10-31T20:28:13;100624.00;;;19.50
51547;BMP180;37542;50.164;9.086;2022-10-31T20:31:54;100624.00;;;19.50
51547;BMP180;37542;50.164;9.086;2022-10-31T20:35:38;100625.00;;;19.50
51547;BMP180;37542;50.164;9.086;2022-10-31T20:39:19;100649.00;;;19.60
51547;BMP180;37542;50.164;9.086;2022-10-31T20:43:03;100626.00;;;19.50
51547;BMP180;37542;50.164;9.086;2022-10-31T20:46:43;100643.00;;;19.60
51547;BMP180;37542;50.164;9.086;2022-10-31T20:50:25;100637.00;;;19.50
51547;BMP180;37542;50.164;9.086;2022-10-31T20:54:06;100652.00;;;19.60
51547;BMP180;37542;50.164;9.086;2022-10-31T20:57:46;100628.00;;;19.60
51547;BMP180;37542;50.164;9.086;2022-10-31T21:01:30;100634.00;;;19.50
51547;BMP180;37542;50.164;9.086;2022-10-31T21:05:13;100637.00;;;19.50
51547;BMP180;37542;50.164;9.086;2022-10-31T21:08:55;100646.00;;;19.40
51547;BMP180;37542;50.164;9.086;2022-10-31T21:12:38;100617.00;;;19.50
51547;BMP180;37542;50.164;9.086;2022-10-31T21:16:30;100647.00;;;19.50
51547;BMP180;37542;50.164;9.086;2022-10-31T21:20:11;100650.00;;;19.50
51547;BMP180;37542;50.164;9.086;2022-10-31T21:27:53;100564.00;;;19.40
51547;BMP180;37542;50.164;9.086;2022-10-31T21:31:36;100601.00;;;19.30
51547;BMP180;37542;50.164;9.086;2022-10-31T21:35:17;100595.00;;;19.30
51547;BMP180;37542;50.164;9.086;2022-10-31T21:38:58;100620.00;;;19.10
51547;BMP180;37542;50.164;9.086;2022-10-31T21:42:42;100628.00;;;19.20
51547;BMP180;37542;50.164;9.086;2022-10-31T21:46:29;100608.00;;;19.20
51547;BMP180;37542;50.164;9.086;2022-10-31T21:50:13;100634.00;;;19.00
51547;BMP180;37542;50.164;9.086;2022-10-31T21:53:55;100643.00;;;19.10
51547;BMP180;37542;50.164;9.086;2022-10-31T21:57:59;100623.00;;;19.10
51547;BMP180;37542;50.164;9.086;2022-10-31T22:01:40;100601.00;;;19.00
51547;BMP180;37542;50.164;9.086;2022-10-31T22:05:24;100603.00;;;19.00
51547;BMP180;37542;50.164;9.086;2022-10-31T22:09:09;100586.00;;;18.80
51547;BMP180;37542;50.164;9.086;2022-10-31T22:13:00;100575.00;;;18.90
51547;BMP180;37542;50.164;9.086;2022-10-31T22:16:42;100593.00;;;18.80
51547;BMP180;37542;50.164;9.086;2022-10-31T22:20:22;100575.00;;;18.60
51547;BMP180;37542;50.164;9.086;2022-10-31T22:24:07;100611.00;;;18.80
51547;BMP180;37542;50.164;9.086;2022-10-31T22:27:51;100590.00;;;18.70
51547;BMP180;37542;50.164;9.086;2022-10-31T22:31:41;100588.00;;;18.70
51547;BMP180;37542;50.164;9.086;2022-10-31T22:35:22;100590.00;;;18.60
51547;BMP180;37542;50.164;9.086;2022-10-31T22:39:04;100569.00;;;18.60
51547;BMP180;37542;50.164;9.086;2022-10-31T22:42:45;100557.00;;;18.60
51547;BMP180;37542;50.164;9.086;2022-10-31T22:46:30;100556.00;;;18.50
51547;BMP180;37542;50.164;9.086;2022-10-31T22:50:11;100546.00;;;18.60
51547;BMP180;37542;50.164;9.086;2022-10-31T22:53:52;100561.00;;;18.60
51547;BMP180;37542;50.164;9.086;2022-10-31T22:57:36;100542.00;;;18.60
51547;BMP180;37542;50.164;9.086;2022-10-31T23:01:25;100554.00;;;18.50
51547;BMP180;37542;50.164;9.086;2022-10-31T23:05:06;100546.00;;;18.50
51547;BMP180;37542;50.164;9.086;2022-10-31T23:08:48;100538.00;;;18.40
51547;BMP180;37542;50.164;9.086;2022-10-31T23:12:29;100534.00;;;18.40
51547;BMP180;37542;50.164;9.086;2022-10-31T23:16:29;100557.00;;;18.40
51547;BMP180;37542;50.164;9.086;2022-10-31T23:20:10;100549.00;;;18.40
51547;BMP180;37542;50.164;9.086;2022-10-31T23:23:51;100551.00;;;18.30
51547;BMP180;37542;50.164;9.086;2022-10-31T23:27:31;100547.00;;;18.30
51547;BMP180;37542;50.164;9.086;2022-10-31T23:31:12;100557.00;;;18.30